sensor_id;sensor_type;location;lat;lon;timestamp;P1;durP1;ratioP1;P2;durP2;ratioP2
48627;SDS011;34424;52.234;6.500;2023-05-10T00:04:52;16.30;;;9.63;;
48627;SDS011;34424;52.234;6.500;2023-05-10T00:09:56;13.68;;;9.50;;
48627;SDS011;34424;52.234;6.500;2023-05-10T00:14:58;14.88;;;10.10;;
48627;SDS011;34424;52.234;6.500;2023-05-10T00:20:01;13.87;;;10.00;;
48627;SDS011;34424;52.234;6.500;2023-05-10T00:25:08;16.83;;;10.30;;
48627;SDS011;34424;52.234;6.500;2023-05-10T00:30:11;16.20;;;10.55;;
48627;SDS011;34424;52.234;6.500;2023-05-10T00:35:14;18.08;;;11.10;;
48627;SDS011;34424;52.234;6.500;2023-05-10T00:40:19;20.00;;;11.90;;
48627;SDS011;34424;52.234;6.500;2023-05-10T00:45:23;17.33;;;11.20;;
48627;SDS011;34424;52.234;6.500;2023-05-10T00:50:26;19.77;;;12.55;;
48627;SDS011;34424;52.234;6.500;2023-05-10T00:55:32;21.00;;;11.88;;
48627;SDS011;34424;52.234;6.500;2023-05-10T01:00:34;20.55;;;12.48;;
48627;SDS011;34424;52.234;6.500;2023-05-10T01:05:38;22.30;;;12.82;;
48627;SDS011;34424;52.234;6.500;2023-05-10T01:10:42;24.75;;;13.45;;
48627;SDS011;34424;52.234;6.500;2023-05-10T01:15:46;21.05;;;13.00;;
48627;SDS011;34424;52.234;6.500;2023-05-10T01:20:54;19.75;;;12.75;;
48627;SDS011;34424;52.234;6.500;2023-05-10T01:26:20;20.17;;;12.35;;
48627;SDS011;34424;52.234;6.500;2023-05-10T01:32:08;26.08;;;13.20;;
48627;SDS011;34424;52.234;6.500;2023-05-10T01:37:25;22.50;;;13.57;;
48627;SDS011;34424;52.234;6.500;2023-05-10T01:42:35;22.75;;;14.30;;
48627;SDS011;34424;52.234;6.500;2023-05-10T01:47:43;25.63;;;14.18;;
48627;SDS011;34424;52.234;6.500;2023-05-10T01:52:49;23.40;;;14.13;;
48627;SDS011;34424;52.234;6.500;2023-05-10T01:57:58;24.17;;;15.23;;
48627;SDS011;34424;52.234;6.500;2023-05-10T02:03:06;28.45;;;15.68;;
48627;SDS011;34424;52.234;6.500;2023-05-10T02:08:11;28.17;;;15.60;;
48627;SDS011;34424;52.234;6.500;2023-05-10T02:13:16;30.67;;;17.02;;
48627;SDS011;34424;52.234;6.500;2023-05-10T02:18:22;31.65;;;16.95;;
48627;SDS011;34424;52.234;6.500;2023-05-10T02:23:27;31.70;;;15.75;;
48627;SDS011;34424;52.234;6.500;2023-05-10T02:28:31;37.28;;;17.80;;
48627;SDS011;34424;52.234;6.500;2023-05-10T02:38:41;38.72;;;19.90;;
48627;SDS011;34424;52.234;6.500;2023-05-10T02:43:44;46.22;;;20.63;;
48627;SDS011;34424;52.234;6.500;2023-05-10T02:48:50;43.20;;;21.20;;
48627;SDS011;34424;52.234;6.500;2023-05-10T02:53:53;52.45;;;22.40;;
48627;SDS011;34424;52.234;6.500;2023-05-10T02:58:58;47.58;;;23.25;;
48627;SDS011;34424;52.234;6.500;2023-05-10T03:04:02;52.08;;;23.90;;
48627;SDS011;34424;52.234;6.500;2023-05-10T03:09:05;54.20;;;25.35;;
48627;SDS011;34424;52.234;6.500;2023-05-10T03:14:13;59.00;;;26.27;;
48627;SDS011;34424;52.234;6.500;2023-05-10T03:19:26;61.87;;;27.77;;
48627;SDS011;34424;52.234;6.500;2023-05-10T03:24:32;62.42;;;27.65;;
48627;SDS011;34424;52.234;6.500;2023-05-10T03:29:37;65.55;;;28.92;;
48627;SDS011;34424;52.234;6.500;2023-05-10T03:34:43;70.72;;;30.17;;
48627;SDS011;34424;52.234;6.500;2023-05-10T03:39:45;81.90;;;31.45;;
48627;SDS011;34424;52.234;6.500;2023-05-10T03:44:48;78.17;;;33.73;;
48627;SDS011;34424;52.234;6.500;2023-05-10T03:49:52;78.95;;;33.92;;
48627;SDS011;34424;52.234;6.500;2023-05-10T03:54:55;92.68;;;34.47;;
48627;SDS011;34424;52.234;6.500;2023-05-10T03:59:58;94.47;;;36.93;;
48627;SDS011;34424;52.234;6.500;2023-05-10T04:05:02;104.68;;;37.95;;
48627;SDS011;34424;52.234;6.500;2023-05-10T04:10:05;117.68;;;40.38;;
48627;SDS011;34424;52.234;6.500;2023-05-10T04:15:09;113.90;;;39.92;;
48627;SDS011;34424;52.234;6.500;2023-05-10T04:20:13;123.18;;;45.25;;
48627;SDS011;34424;52.234;6.500;2023-05-10T04:25:16;128.82;;;44.30;;
48627;SDS011;34424;52.234;6.500;2023-05-10T04:30:19;129.35;;;43.78;;
48627;SDS011;34424;52.234;6.500;2023-05-10T04:35:23;138.55;;;47.63;;
48627;SDS011;34424;52.234;6.500;2023-05-10T04:40:26;131.32;;;45.85;;
48627;SDS011;34424;52.234;6.500;2023-05-10T04:45:28;138.32;;;50.10;;
48627;SDS011;34424;52.234;6.500;2023-05-10T04:50:32;130.73;;;49.80;;
48627;SDS011;34424;52.234;6.500;2023-05-10T04:55:35;123.32;;;48.50;;
48627;SDS011;34424;52.234;6.500;2023-05-10T05:00:38;138.93;;;53.00;;
48627;SDS011;34424;52.234;6.500;2023-05-10T05:05:42;116.95;;;45.25;;
48627;SDS011;34424;52.234;6.500;2023-05-10T05:10:45;118.00;;;42.88;;
48627;SDS011;34424;52.234;6.500;2023-05-10T05:15:48;118.20;;;43.42;;
48627;SDS011;34424;52.234;6.500;2023-05-10T05:20:52;100.70;;;40.60;;
48627;SDS011;34424;52.234;6.500;2023-05-10T05:25:55;90.28;;;37.13;;
48627;SDS011;34424;52.234;6.500;2023-05-10T05:30:57;86.30;;;38.00;;
48627;SDS011;34424;52.234;6.500;2023-05-10T05:36:01;80.33;;;35.13;;
48627;SDS011;34424;52.234;6.500;2023-05-10T05:41:05;87.20;;;37.40;;
48627;SDS011;34424;52.234;6.500;2023-05-10T05:46:07;91.67;;;36.07;;
48627;SDS011;34424;52.234;6.500;2023-05-10T05:51:11;81.60;;;36.97;;
48627;SDS011;34424;52.234;6.500;2023-05-10T05:56:14;79.95;;;33.70;;
48627;SDS011;34424;52.234;6.500;2023-05-10T06:01:16;80.72;;;34.80;;
48627;SDS011;34424;52.234;6.500;2023-05-10T06:06:21;74.47;;;34.40;;
48627;SDS011;34424;52.234;6.500;2023-05-10T06:11:24;70.50;;;33.95;;
48627;SDS011;34424;52.234;6.500;2023-05-10T06:16:27;64.75;;;31.00;;
48627;SDS011;34424;52.234;6.500;2023-05-10T06:21:31;66.88;;;31.45;;
48627;SDS011;34424;52.234;6.500;2023-05-10T06:26:34;64.50;;;29.75;;
48627;SDS011;34424;52.234;6.500;2023-05-10T06:31:37;54.25;;;27.05;;
48627;SDS011;34424;52.234;6.500;2023-05-10T06:36:41;49.63;;;25.13;;
48627;SDS011;34424;52.234;6.500;2023-05-10T06:41:43;47.53;;;25.00;;
48627;SDS011;34424;52.234;6.500;2023-05-10T06:52:09;48.55;;;25.60;;
48627;SDS011;34424;52.234;6.500;2023-05-10T06:57:11;46.95;;;23.77;;
48627;SDS011;34424;52.234;6.500;2023-05-10T07:02:32;47.72;;;24.40;;
48627;SDS011;34424;52.234;6.500;2023-05-10T07:07:36;49.45;;;25.00;;
48627;SDS011;34424;52.234;6.500;2023-05-10T07:12:39;54.97;;;24.88;;
48627;SDS011;34424;52.234;6.500;2023-05-10T07:22:47;56.50;;;27.25;;
48627;SDS011;34424;52.234;6.500;2023-05-10T07:27:50;57.05;;;24.00;;
48627;SDS011;34424;52.234;6.500;2023-05-10T07:32:53;55.40;;;26.63;;
48627;SDS011;34424;52.234;6.500;2023-05-10T07:37:57;55.47;;;25.25;;
48627;SDS011;34424;52.234;6.500;2023-05-10T07:42:59;56.70;;;25.48;;
48627;SDS011;34424;52.234;6.500;2023-05-10T07:53:06;63.42;;;25.60;;
48627;SDS011;34424;52.234;6.500;2023-05-10T07:58:09;56.38;;;25.50;;
48627;SDS011;34424;52.234;6.500;2023-05-10T08:03:12;50.50;;;26.35;;
48627;SDS011;34424;52.234;6.500;2023-05-10T08:08:16;57.40;;;24.92;;
48627;SDS011;34424;52.234;6.500;2023-05-10T08:13:19;66.25;;;28.90;;
48627;SDS011;34424;52.234;6.500;2023-05-10T08:18:21;70.28;;;31.02;;
48627;SDS011;34424;52.234;6.500;2023-05-10T08:23:25;66.45;;;28.40;;
48627;SDS011;34424;52.234;6.500;2023-05-10T08:28:28;57.50;;;25.40;;
48627;SDS011;34424;52.234;6.500;2023-05-10T08:33:31;59.40;;;26.05;;
48627;SDS011;34424;52.234;6.500;2023-05-10T08:38:35;53.63;;;23.88;;
48627;SDS011;34424;52.234;6.500;2023-05-10T08:43:38;56.00;;;24.90;;
48627;SDS011;34424;52.234;6.500;2023-05-10T08:48:42;50.85;;;25.15;;
48627;SDS011;34424;52.234;6.500;2023-05-10T08:53:46;54.60;;;23.40;;
48627;SDS011;34424;52.234;6.500;2023-05-10T08:58:50;41.05;;;22.55;;
48627;SDS011;34424;52.234;6.500;2023-05-10T09:03:53;49.80;;;23.42;;
48627;SDS011;34424;52.234;6.500;2023-05-10T09:08:57;46.65;;;22.70;;
48627;SDS011;34424;52.234;6.500;2023-05-10T09:14:01;36.60;;;20.60;;
48627;SDS011;34424;52.234;6.500;2023-05-10T09:19:03;35.85;;;20.20;;
48627;SDS011;34424;52.234;6.500;2023-05-10T09:24:08;31.52;;;18.25;;
48627;SDS011;34424;52.234;6.500;2023-05-10T09:29:11;28.60;;;16.15;;
48627;SDS011;34424;52.234;6.500;2023-05-10T09:34:18;26.52;;;13.32;;
48627;SDS011;34424;52.234;6.500;2023-05-10T09:39:30;23.05;;;12.50;;
48627;SDS011;34424;52.234;6.500;2023-05-10T09:44:34;17.90;;;11.30;;
48627;SDS011;34424;52.234;6.500;2023-05-10T09:49:38;17.85;;;12.18;;
48627;SDS011;34424;52.234;6.500;2023-05-10T09:54:47;17.67;;;11.32;;
48627;SDS011;34424;52.234;6.500;2023-05-10T09:59:55;17.55;;;11.18;;
48627;SDS011;34424;52.234;6.500;2023-05-10T10:04:59;14.77;;;10.18;;
48627;SDS011;34424;52.234;6.500;2023-05-10T10:10:06;16.13;;;10.45;;
48627;SDS011;34424;52.234;6.500;2023-05-10T10:15:12;16.67;;;10.50;;
48627;SDS011;34424;52.234;6.500;2023-05-10T10:20:18;12.00;;;9.48;;
48627;SDS011;34424;52.234;6.500;2023-05-10T10:25:23;13.95;;;9.23;;
48627;SDS011;34424;52.234;6.500;2023-05-10T10:30:35;14.23;;;9.35;;
48627;SDS011;34424;52.234;6.500;2023-05-10T10:35:41;14.88;;;9.25;;
48627;SDS011;34424;52.234;6.500;2023-05-10T10:40:47;15.15;;;9.30;;
48627;SDS011;34424;52.234;6.500;2023-05-10T10:51:13;10.40;;;7.23;;
48627;SDS011;34424;52.234;6.500;2023-05-10T10:56:18;11.18;;;7.07;;
48627;SDS011;34424;52.234;6.500;2023-05-10T11:01:25;13.00;;;7.20;;
48627;SDS011;34424;52.234;6.500;2023-05-10T11:06:35;12.90;;;9.18;;
48627;SDS011;34424;52.234;6.500;2023-05-10T11:11:50;13.27;;;8.15;;
48627;SDS011;34424;52.234;6.500;2023-05-10T11:16:56;14.05;;;8.90;;
48627;SDS011;34424;52.234;6.500;2023-05-10T11:27:16;13.75;;;8.73;;
48627;SDS011;34424;52.234;6.500;2023-05-10T11:32:19;19.15;;;10.93;;
48627;SDS011;34424;52.234;6.500;2023-05-10T11:37:22;14.88;;;10.23;;
48627;SDS011;34424;52.234;6.500;2023-05-10T11:47:29;15.57;;;9.57;;
48627;SDS011;34424;52.234;6.500;2023-05-10T11:57:38;13.45;;;8.75;;
48627;SDS011;34424;52.234;6.500;2023-05-10T12:02:43;12.90;;;8.35;;
48627;SDS011;34424;52.234;6.500;2023-05-10T12:07:46;12.07;;;7.43;;
48627;SDS011;34424;52.234;6.500;2023-05-10T12:12:51;12.63;;;7.97;;
48627;SDS011;34424;52.234;6.500;2023-05-10T12:17:54;13.48;;;9.45;;
48627;SDS011;34424;52.234;6.500;2023-05-10T12:22:59;13.38;;;10.18;;
48627;SDS011;34424;52.234;6.500;2023-05-10T12:28:05;12.95;;;9.48;;
48627;SDS011;34424;52.234;6.500;2023-05-10T12:33:10;13.75;;;9.57;;
48627;SDS011;34424;52.234;6.500;2023-05-10T12:38:24;15.95;;;8.90;;
48627;SDS011;34424;52.234;6.500;2023-05-10T12:43:29;10.25;;;7.50;;
48627;SDS011;34424;52.234;6.500;2023-05-10T12:48:32;9.45;;;7.32;;
48627;SDS011;34424;52.234;6.500;2023-05-10T12:53:35;12.02;;;7.95;;
48627;SDS011;34424;52.234;6.500;2023-05-10T12:58:39;9.85;;;7.18;;
48627;SDS011;34424;52.234;6.500;2023-05-10T13:03:42;10.65;;;7.95;;
48627;SDS011;34424;52.234;6.500;2023-05-10T13:08:45;9.40;;;6.57;;
48627;SDS011;34424;52.234;6.500;2023-05-10T13:13:49;10.55;;;6.70;;
48627;SDS011;34424;52.234;6.500;2023-05-10T13:18:51;10.80;;;5.80;;
48627;SDS011;34424;52.234;6.500;2023-05-10T13:28:58;4.55;;;3.67;;
48627;SDS011;34424;52.234;6.500;2023-05-10T13:34:00;5.45;;;4.05;;
48627;SDS011;34424;52.234;6.500;2023-05-10T13:39:03;4.57;;;3.50;;
